Time;durP1;ratioP1;P1;durP2;ratioP2;P2;SDS_P1;SDS_P2;PMS_P1;PMS_P2;Temp;Humidity;BMP_temperature;BMP_pressure;BME280_temperature;BME280_humidity;BME280_pressure;Samples;Min_cycle;Max_cycle;Signal;HPM_P1;HPM_P2
2021/12/06 00:01:50;;;;;;;5.10;2.55;;;;;;;20.60;34.92;101025.19;7309133;19;131384;-61
2021/12/06 00:04:22;;;;;;;5.38;2.30;;;;;;;20.56;35.39;101024.84;7313338;19;130531;-62
2021/12/06 00:06:53;;;;;;;5.30;2.42;;;;;;;20.55;35.07;101039.84;7313895;19;128893;-62
2021/12/06 00:09:22;;;;;;;5.05;2.70;;;;;;;20.52;35.25;101051.47;7318985;19;129293;-62
2021/12/06 00:11:56;;;;;;;4.32;2.00;;;;;;;20.51;35.02;101060.91;7317386;19;131197;-63
2021/12/06 00:14:28;;;;;;;4.25;2.33;;;;;;;20.48;35.33;101066.97;7317865;19;130716;-62
2021/12/06 00:17:00;;;;;;;3.63;2.35;;;;;;;20.47;35.37;101076.41;7318089;19;129775;-60
2021/12/06 00:19:28;;;;;;;7.75;2.60;;;;;;;20.45;35.47;101078.59;7316298;19;129258;-61
2021/12/06 00:21:57;;;;;;;5.03;2.22;;;;;;;20.43;35.33;101091.94;7317247;19;130621;-62
2021/12/06 00:24:25;;;;;;;5.57;2.42;;;;;;;20.41;35.30;101088.56;7312137;19;130554;-60
2021/12/06 00:26:51;;;;;;;6.90;2.60;;;;;;;20.39;35.32;101090.75;7318868;19;128881;-62
2021/12/06 00:29:18;;;;;;;4.45;2.13;;;;;;;20.37;35.30;101090.97;7316598;19;129204;-62
2021/12/06 00:31:45;;;;;;;3.42;2.20;;;;;;;20.36;35.67;101096.78;7317826;19;130683;-62
2021/12/06 00:34:16;;;;;;;7.70;2.33;;;;;;;20.33;35.67;101088.97;7319516;19;130873;-63
2021/12/06 00:36:55;;;;;;;5.50;2.30;;;;;;;20.32;35.18;101106.72;7316549;19;129019;-62
2021/12/06 00:39:22;;;;;;;4.72;2.13;;;;;;;20.31;35.32;101102.28;7317717;19;130259;-62
2021/12/06 00:41:49;;;;;;;4.55;2.05;;;;;;;20.28;35.48;101107.25;7315114;19;130612;-62
2021/12/06 00:44:16;;;;;;;3.22;2.13;;;;;;;20.27;35.71;101110.25;7317856;19;131214;-61
2021/12/06 00:46:43;;;;;;;4.30;2.38;;;;;;;20.23;35.31;101109.94;7315375;19;129008;-62
2021/12/06 00:49:11;;;;;;;3.20;2.28;;;;;;;20.21;35.56;101112.13;7317239;19;128874;-62
2021/12/06 00:51:39;;;;;;;5.45;2.30;;;;;;;20.20;35.50;101123.50;7314341;19;130676;-62
2021/12/06 00:54:07;;;;;;;2.88;2.03;;;;;;;20.19;35.71;101130.16;7316488;19;130655;-61
2021/12/06 00:56:33;;;;;;;4.93;2.42;;;;;;;20.17;35.64;101124.00;7318029;19;128890;-62
2021/12/06 00:59:00;;;;;;;3.33;2.05;;;;;;;20.13;35.78;101123.66;7315447;19;130448;-61
2021/12/06 01:01:27;;;;;;;4.00;2.10;;;;;;;20.11;35.39;101128.63;7317557;19;131692;-62
2021/12/06 01:03:54;;;;;;;3.50;2.28;;;;;;;20.09;35.76;101131.66;7314176;19;130487;-61
2021/12/06 01:06:21;;;;;;;3.00;2.08;;;;;;;20.07;35.54;101128.28;7318289;19;129319;-62
2021/12/06 01:08:47;;;;;;;6.43;2.40;;;;;;;20.07;35.57;101141.31;7314309;19;128983;-61
2021/12/06 01:11:14;;;;;;;4.10;1.98;;;;;;;20.04;35.34;101139.88;7316902;19;130733;-61
2021/12/06 01:13:41;;;;;;;3.10;1.88;;;;;;;20.03;35.73;101134.59;7313516;19;131183;-62
2021/12/06 01:16:08;;;;;;;5.07;2.40;;;;;;;20.02;35.35;101146.78;7316492;19;128907;-63
2021/12/06 01:18:36;;;;;;;2.97;2.20;;;;;;;20.02;35.57;101152.34;7313940;19;129392;-62
2021/12/06 01:21:23;;;;;;;4.20;2.22;;;;;;;20.01;35.40;101161.78;7315500;19;131401;-62
2021/12/06 01:23:56;;;;;;;3.45;2.38;;;;;;;19.96;35.51;101157.78;7317882;19;131302;-61
2021/12/06 01:29:47;;;;;;;2.92;2.13;;;;;;;19.93;35.53;101166.63;7316816;19;128973;-62
2021/12/06 01:40:33;;;;;;;3.42;2.10;;;;;;;19.84;35.74;101173.66;7311932;19;129965;-62
2021/12/06 01:43:04;;;;;;;4.50;2.20;;;;;;;19.84;35.53;101191.16;7314738;19;130632;-61
2021/12/06 01:45:31;;;;;;;3.20;2.17;;;;;;;19.81;35.32;101191.66;7317523;19;130710;-62
2021/12/06 01:47:58;;;;;;;5.25;2.30;;;;;;;19.80;35.63;101191.91;7314799;19;129783;-61
2021/12/06 01:50:28;;;;;;;4.28;2.47;;;;;;;19.79;35.29;101201.31;7316836;19;128902;-62
2021/12/06 01:52:58;;;;;;;4.72;2.45;;;;;;;19.79;35.27;101198.56;7314011;19;131286;-62
2021/12/06 01:55:28;;;;;;;4.22;2.40;;;;;;;19.79;35.28;101202.16;7316544;19;130634;-61
2021/12/06 01:57:57;;;;;;;4.80;2.53;;;;;;;19.79;35.27;101201.31;7314824;19;130442;-62
2021/12/06 02:00:49;;;;;;;3.47;2.28;;;;;;;19.78;35.25;101214.34;7313232;19;128999;-62
2021/12/06 02:03:16;;;;;;;5.07;2.60;;;;;;;19.75;35.08;101216.78;7315922;19;131088;-62
2021/12/06 02:05:48;;;;;;;5.18;2.92;;;;;;;19.74;35.14;101221.50;7312447;19;130312;-61
2021/12/06 02:08:15;;;;;;;3.65;2.60;;;;;;;19.73;35.14;101222.59;7316101;19;128967;-62
2021/12/06 02:10:42;;;;;;;3.30;2.50;;;;;;;19.71;34.89;101218.34;7312720;19;128912;-62
2021/12/06 02:13:10;;;;;;;3.40;2.35;;;;;;;19.68;35.06;101231.66;7313691;19;130556;-61
2021/12/06 02:15:49;;;;;;;2.95;2.30;;;;;;;19.67;35.12;101232.75;7313278;19;130724;-62
2021/12/06 02:18:39;;;;;;;4.88;2.53;;;;;;;19.66;35.26;101233.84;7314281;19;129029;-62
2021/12/06 02:21:27;;;;;;;4.70;2.30;;;;;;;19.68;35.08;101230.81;7315854;19;129706;-62
2021/12/06 02:23:55;;;;;;;3.30;2.28;;;;;;;19.65;34.82;101232.16;7309817;19;130662;-62
2021/12/06 02:26:23;;;;;;;3.40;2.28;;;;;;;19.64;35.11;101229.59;7316501;19;130481;-62
2021/12/06 02:28:50;;;;;;;4.80;2.45;;;;;;;19.62;34.81;101232.63;7313787;19;128966;-61
2021/12/06 02:31:19;;;;;;;3.20;2.47;;;;;;;19.62;34.99;101238.19;7315820;19;128933;-62
2021/12/06 02:33:48;;;;;;;3.95;2.72;;;;;;;19.59;34.83;101235.88;7316307;19;130778;-62
2021/12/06 02:36:20;;;;;;;3.90;2.50;;;;;;;19.58;35.17;101225.88;7314045;19;131260;-61
2021/12/06 02:38:48;;;;;;;4.93;2.53;;;;;;;19.56;35.02;101230.84;7316586;19;130900;-61
2021/12/06 02:41:15;;;;;;;3.03;2.40;;;;;;;19.57;35.19;101224.19;7314711;19;128839;-61
2021/12/06 02:43:42;;;;;;;3.38;2.38;;;;;;;19.56;35.05;101227.22;7317298;19;132383;-61
2021/12/06 02:46:09;;;;;;;5.10;3.05;;;;;;;19.56;35.22;101221.66;7311927;19;130712;-61
2021/12/06 02:48:36;;;;;;;3.25;2.10;;;;;;;19.55;35.32;101219.97;7316313;19;128782;-61
2021/12/06 02:51:06;;;;;;;3.10;2.38;;;;;;;19.54;35.30;101213.59;7313903;19;129018;-61
2021/12/06 02:53:35;;;;;;;3.60;2.50;;;;;;;19.54;34.82;101224.69;7314856;19;130831;-61
2021/12/06 02:56:16;;;;;;;4.82;2.30;;;;;;;19.52;35.34;101215.78;7315934;19;130738;-61
2021/12/06 02:58:56;;;;;;;3.63;2.42;;;;;;;19.50;35.10;101224.34;7313844;19;128961;-61
2021/12/06 03:01:34;;;;;;;3.65;2.58;;;;;;;19.50;35.15;101224.34;7315628;19;128802;-62
2021/12/06 03:04:02;;;;;;;3.78;2.30;;;;;;;19.49;34.96;101224.56;7312436;19;130902;-61
2021/12/06 03:06:30;;;;;;;4.47;2.08;;;;;;;19.48;35.15;101220.13;7314309;19;130733;-61
2021/12/06 03:09:07;;;;;;;4.18;2.15;;;;;;;19.48;34.95;101222.88;7313068;19;129650;-61
2021/12/06 03:11:49;;;;;;;3.28;2.10;;;;;;;19.47;35.19;101227.59;7314648;19;129519;-61
2021/12/06 03:14:21;;;;;;;4.53;2.10;;;;;;;19.48;35.18;101225.66;7314964;19;130632;-61
2021/12/06 03:16:49;;;;;;;3.47;2.08;;;;;;;19.46;34.89;101227.84;7311714;19;130086;-61
2021/12/06 03:19:15;;;;;;;5.80;2.40;;;;;;;19.44;35.23;101228.09;7315031;19;128866;-61
2021/12/06 03:21:42;;;;;;;4.03;2.42;;;;;;;19.44;35.30;101236.41;7311609;19;130784;-61
2021/12/06 03:24:09;;;;;;;2.70;2.20;;;;;;;19.42;35.38;101237.75;7314824;19;130917;-62
2021/12/06 03:26:38;;;;;;;4.28;2.22;;;;;;;19.41;35.45;101236.91;7312619;19;130462;-61
2021/12/06 03:29:05;;;;;;;2.40;2.15;;;;;;;19.40;35.51;101240.75;7313546;19;128846;-61
2021/12/06 03:31:32;;;;;;;3.28;2.10;;;;;;;19.40;35.38;101240.75;7314663;19;129207;-62
2021/12/06 03:33:59;;;;;;;4.25;2.20;;;;;;;19.40;35.18;101239.94;7312705;19;130718;-61
2021/12/06 03:36:29;;;;;;;2.72;2.00;;;;;;;19.38;35.01;101238.25;7314567;19;131368;-62
2021/12/06 03:38:57;;;;;;;3.03;2.25;;;;;;;19.38;35.59;101238.25;7310014;19;128938;-60
2021/12/06 03:41:26;;;;;;;2.88;2.20;;;;;;;19.37;35.44;101244.88;7314344;19;129562;-62
2021/12/06 03:43:54;;;;;;;3.20;2.47;;;;;;;19.37;35.24;101247.66;7310929;19;130786;-61
2021/12/06 03:46:22;;;;;;;3.20;2.25;;;;;;;19.36;35.41;101254.28;7313225;19;130617;-61
2021/12/06 03:48:49;;;;;;;3.08;2.15;;;;;;;19.36;35.35;101251.50;7311044;19;129311;-62
2021/12/06 03:51:16;;;;;;;2.38;2.03;;;;;;;19.35;35.13;101251.75;7312061;19;130621;-62
2021/12/06 03:53:43;;;;;;;2.35;1.90;;;;;;;19.34;35.24;101259.22;7313636;19;131381;-62
2021/12/06 03:56:10;;;;;;;3.88;1.95;;;;;;;19.33;35.25;101256.69;7310708;19;130284;-61
2021/12/06 03:58:37;;;;;;;3.58;2.20;;;;;;;19.31;35.33;101248.63;7311837;19;129074;-61
2021/12/06 04:01:04;;;;;;;3.47;2.20;;;;;;;19.32;35.57;101249.47;7310412;19;130625;-61
2021/12/06 04:03:34;;;;;;;2.50;2.03;;;;;;;19.31;35.17;101251.41;7311993;19;131385;-61
2021/12/06 04:06:03;;;;;;;1.80;1.70;;;;;;;19.31;35.34;101247.78;7310439;19;130808;-62
2021/12/06 04:08:30;;;;;;;2.40;2.15;;;;;;;19.30;35.23;101258.03;7312645;19;129012;-59
2021/12/06 04:10:57;;;;;;;2.67;2.15;;;;;;;19.28;35.67;101257.44;7310715;19;130542;-61
2021/12/06 04:13:24;;;;;;;2.72;2.10;;;;;;;19.28;35.24;101262.97;7311486;19;130450;-61
2021/12/06 04:15:50;;;;;;;3.83;2.35;;;;;;;19.28;35.42;101264.91;7309163;19;130498;-61
2021/12/06 04:18:17;;;;;;;2.33;2.00;;;;;;;19.28;35.34;101262.97;7311689;19;129418;-61
2021/12/06 04:20:44;;;;;;;3.13;2.22;;;;;;;19.25;35.38;101263.47;7311770;19;129158;-62
2021/12/06 04:23:12;;;;;;;2.90;2.00;;;;;;;19.25;35.72;101266.22;7310381;19;130542;-61
2021/12/06 04:25:41;;;;;;;2.50;2.00;;;;;;;19.21;35.62;101271.44;7312592;19;130734;-61
2021/12/06 04:28:09;;;;;;;3.20;1.90;;;;;;;19.22;35.41;101267.56;7309057;19;129289;-61
2021/12/06 04:30:38;;;;;;;3.63;1.85;;;;;;;19.23;35.76;101290.59;7312096;19;128793;-61
2021/12/06 04:33:05;;;;;;;2.17;1.88;;;;;;;19.22;35.74;101277.81;7310552;19;131302;-61
2021/12/06 04:35:35;;;;;;;2.42;1.90;;;;;;;19.22;35.78;101277.81;7308004;19;131200;-61
2021/12/06 04:38:03;;;;;;;2.55;2.25;;;;;;;19.21;35.53;101279.75;7308976;19;129112;-62
2021/12/06 04:40:30;;;;;;;3.05;2.13;;;;;;;19.20;35.68;101277.19;7309081;19;129403;-61
2021/12/06 04:42:57;;;;;;;2.13;1.88;;;;;;;19.18;35.49;101276.59;7311496;19;131539;-61
2021/12/06 04:45:24;;;;;;;2.65;1.90;;;;;;;19.18;35.41;101277.41;7309567;19;130321;-61
2021/12/06 04:47:51;;;;;;;3.00;2.25;;;;;;;19.18;35.36;101279.38;7313050;19;128975;-62
2021/12/06 04:50:24;;;;;;;2.75;2.03;;;;;;;19.18;35.58;101280.19;7309708;19;129162;-61
2021/12/06 04:52:57;;;;;;;2.53;1.95;;;;;;;19.17;35.61;101286.00;7312004;19;130386;-61
2021/12/06 04:55:50;;;;;;;3.08;1.90;;;;;;;19.14;35.53;101287.28;7315472;19;131201;-62
2021/12/06 04:58:21;;;;;;;2.72;1.98;;;;;;;19.15;35.41;101297.31;7317630;19;130281;-61
2021/12/06 05:00:54;;;;;;;2.63;1.90;;;;;;;19.15;35.63;101293.69;7315215;19;129514;-61
2021/12/06 05:03:21;;;;;;;2.83;2.20;;;;;;;19.15;35.48;101296.47;7315752;19;130546;-62
2021/12/06 05:05:55;;;;;;;2.90;2.00;;;;;;;19.15;35.77;101308.41;7318702;19;131339;-62
2021/12/06 05:08:27;;;;;;;2.33;2.00;;;;;;;19.13;35.31;101302.28;7315849;19;128902;-61
2021/12/06 05:10:57;;;;;;;3.13;2.25;;;;;;;19.14;35.79;101305.88;7317896;19;128905;-61
2021/12/06 05:13:25;;;;;;;3.10;2.00;;;;;;;19.13;35.32;101301.41;7318079;19;131366;-61
2021/12/06 05:15:53;;;;;;;3.10;2.00;;;;;;;19.13;35.61;101301.41;7316409;19;130402;-62
2021/12/06 05:18:20;;;;;;;2.78;2.30;;;;;;;19.12;35.64;101299.72;7318730;19;128824;-61
2021/12/06 05:20:47;;;;;;;4.00;2.13;;;;;;;19.13;35.82;101290.31;7316111;19;128889;-62
2021/12/06 05:23:14;;;;;;;2.97;2.15;;;;;;;19.13;35.76;101293.09;7318584;19;130634;-61
2021/12/06 05:25:41;;;;;;;3.25;2.28;;;;;;;19.13;35.52;101290.31;7314896;19;131284;-61
2021/12/06 05:28:08;;;;;;;2.85;2.15;;;;;;;19.12;35.46;101294.19;7318559;19;128705;-61
2021/12/06 05:30:36;;;;;;;3.00;2.60;;;;;;;19.11;35.62;101298.03;7312281;19;128984;-61
2021/12/06 05:33:04;;;;;;;2.95;2.28;;;;;;;19.10;35.33;101296.34;7317674;19;130679;-61
2021/12/06 05:35:31;;;;;;;3.38;2.70;;;;;;;19.10;35.63;101296.34;7313702;19;130486;-61
2021/12/06 05:37:59;;;;;;;2.38;2.15;;;;;;;19.10;35.52;101301.88;7315061;19;128942;-61
2021/12/06 05:40:29;;;;;;;3.38;2.65;;;;;;;19.08;35.34;101305.75;7316890;19;128890;-61
2021/12/06 05:42:57;;;;;;;2.58;2.38;;;;;;;19.07;35.66;101309.63;7316181;19;130583;-60
2021/12/06 05:45:26;;;;;;;4.65;3.08;;;;;;;19.06;35.57;101312.63;7316895;19;130510;-61
2021/12/06 05:47:54;;;;;;;5.03;3.00;;;;;;;19.06;35.72;101319.03;7313765;19;131428;-61
2021/12/06 05:50:23;;;;;;;3.50;2.80;;;;;;;19.05;35.65;101317.34;7316506;19;129069;-58
2021/12/06 05:52:54;;;;;;;3.58;2.97;;;;;;;19.05;35.70;101316.47;7313518;19;131239;-60
2021/12/06 05:55:25;;;;;;;3.83;3.10;;;;;;;19.04;35.43;101321.19;7315267;19;130460;-60
2021/12/06 05:57:52;;;;;;;3.90;3.20;;;;;;;19.04;35.49;101325.88;7312787;19;128869;-61
2021/12/06 06:00:21;;;;;;;3.45;3.15;;;;;;;19.02;35.57;101326.13;7313638;19;129496;-61
2021/12/06 06:02:49;;;;;;;3.28;2.95;;;;;;;19.02;35.61;101328.91;7316236;19;130569;-61
2021/12/06 06:05:18;;;;;;;3.40;3.10;;;;;;;19.02;35.55;101340.00;7313216;19;130507;-62
2021/12/06 06:07:45;;;;;;;3.10;2.80;;;;;;;19.01;35.64;101337.47;7316456;19;129040;-62
2021/12/06 06:10:12;;;;;;;3.50;2.90;;;;;;;19.00;35.66;101336.59;7312349;19;131071;-61
2021/12/06 06:12:39;;;;;;;3.10;2.78;;;;;;;19.00;35.43;101333.84;7316583;19;131035;-60
2021/12/06 06:15:06;;;;;;;6.15;3.15;;;;;;;18.99;35.22;101339.63;7312015;19;131229;-61
2021/12/06 06:17:41;;;;;;;4.55;3.38;;;;;;;18.97;35.65;101342.63;7314262;19;129545;-61
2021/12/06 06:20:34;;;;;;;3.53;2.80;;;;;;;19.01;35.27;101335.53;7312754;19;128885;-61
2021/12/06 06:23:01;;;;;;;2.97;2.67;;;;;;;19.02;35.88;101344.69;7311590;19;130512;-62
2021/12/06 06:25:29;;;;;;;3.08;2.70;;;;;;;19.05;36.00;101345.06;7314620;19;131198;-62
2021/12/06 06:27:56;;;;;;;3.75;2.58;;;;;;;19.12;35.75;101346.88;7307992;19;128898;-61
2021/12/06 06:30:24;;;;;;;4.80;2.10;;;;;;;19.22;35.57;101344.38;7314522;19;128938;-62
2021/12/06 06:32:51;;;;;;;3.17;2.33;;;;;;;19.38;35.69;101342.84;7313172;19;131233;-62
2021/12/06 06:35:19;;;;;;;3.00;2.17;;;;;;;19.57;35.40;101346.28;7313781;19;131238;-62
2021/12/06 06:37:46;;;;;;;3.70;2.30;;;;;;;19.81;35.04;101346.28;7315219;19;130480;-62
2021/12/06 06:40:14;;;;;;;4.10;2.28;;;;;;;20.05;34.77;101347.09;7313544;19;130555;-62
2021/12/06 06:42:42;;;;;;;2.58;1.80;;;;;;;20.29;34.19;101356.22;7313106;19;130812;-62
2021/12/06 06:45:12;;;;;;;4.15;2.20;;;;;;;20.52;34.33;101345.22;7310726;19;131086;-64
2021/12/06 06:47:39;;;;;;;4.40;2.25;;;;;;;20.75;34.12;101355.38;7316859;19;128891;-62
2021/12/06 06:50:06;;;;;;;4.47;2.03;;;;;;;20.96;33.73;101353.84;7313002;19;131241;-62
2021/12/06 06:52:33;;;;;;;3.85;1.70;;;;;;;21.15;33.49;101356.38;7314856;19;130534;-61
2021/12/06 06:55:03;;;;;;;2.92;2.10;;;;;;;21.32;32.93;101356.34;7312688;19;130644;-62
2021/12/06 06:57:30;;;;;;;2.53;1.83;;;;;;;21.44;33.13;101357.09;7313780;19;130168;-62
2021/12/06 06:59:56;;;;;;;2.83;2.03;;;;;;;21.54;32.82;101361.19;7315284;19;128940;-62
2021/12/06 07:02:23;;;;;;;2.10;1.80;;;;;;;21.61;32.73;101371.03;7311321;19;131386;-61
2021/12/06 07:04:50;;;;;;;3.30;1.90;;;;;;;21.65;32.90;101375.00;7315843;19;130591;-62
2021/12/06 07:07:17;;;;;;;4.20;1.90;;;;;;;21.67;32.43;101374.72;7312590;19;129212;-62
2021/12/06 07:09:44;;;;;;;3.35;2.03;;;;;;;21.68;32.54;101379.19;7315766;19;129363;-62
2021/12/06 07:12:15;;;;;;;3.17;1.90;;;;;;;21.67;32.29;101377.50;7310834;19;130618;-62
2021/12/06 07:14:44;;;;;;;2.78;1.90;;;;;;;21.63;32.46;101376.34;7315233;19;130506;-62
2021/12/06 07:17:11;;;;;;;3.88;1.88;;;;;;;21.59;32.79;101377.94;7310222;19;130668;-62
2021/12/06 07:19:38;;;;;;;3.80;1.67;;;;;;;21.52;32.63;101367.84;7312690;19;128933;-62
2021/12/06 07:22:05;;;;;;;4.32;2.08;;;;;;;21.46;33.17;101368.00;7311926;19;130630;-62
2021/12/06 07:24:32;;;;;;;2.50;1.73;;;;;;;21.40;32.85;101375.44;7314008;19;130876;-62
2021/12/06 07:26:59;;;;;;;2.88;2.05;;;;;;;21.33;33.11;101371.97;7314966;19;129605;-62
2021/12/06 07:29:26;;;;;;;2.72;2.05;;;;;;;21.26;32.98;101371.31;7311695;19;129172;-62
2021/12/06 07:31:53;;;;;;;2.78;1.90;;;;;;;21.18;33.17;101376.19;7313830;19;131580;-62
2021/12/06 07:34:20;;;;;;;4.93;1.80;;;;;;;21.12;33.25;101370.78;7310146;19;131438;-61
2021/12/06 07:36:47;;;;;;;3.63;1.73;;;;;;;21.04;33.31;101358.16;7314682;19;128962;-62
2021/12/06 07:39:14;;;;;;;2.90;2.10;;;;;;;20.98;33.75;101353.59;7306739;19;129071;-61
2021/12/06 07:41:40;;;;;;;9.23;2.13;;;;;;;20.92;33.89;101354.59;7311660;19;130596;-63
2021/12/06 07:44:07;;;;;;;5.72;2.40;;;;;;;20.88;34.60;101352.31;7308645;19;130716;-62
2021/12/06 07:46:34;;;;;;;5.82;2.10;;;;;;;20.90;34.24;101360.41;7311513;19;128874;-62
2021/12/06 07:49:01;;;;;;;4.20;1.92;;;;;;;20.93;34.59;101365.47;7313464;19;129043;-63
2021/12/06 07:51:28;;;;;;;5.38;2.08;;;;;;;21.00;34.47;101359.75;7311724;19;130488;-63
2021/12/06 07:53:57;;;;;;;5.20;2.40;;;;;;;21.05;34.93;101354.25;7313278;19;130574;-63
2021/12/06 07:56:25;;;;;;;5.43;2.00;;;;;;;21.12;34.63;101354.94;7311423;19;129617;-63
2021/12/06 07:58:52;;;;;;;2.90;1.95;;;;;;;21.20;34.59;101351.72;7312976;19;128927;-63
2021/12/06 08:01:19;;;;;;;2.80;2.17;;;;;;;21.28;34.34;101356.03;7309786;19;130782;-64
2021/12/06 08:03:46;;;;;;;3.10;1.73;;;;;;;21.36;34.18;101354.75;7313789;19;131490;-64
2021/12/06 08:06:13;;;;;;;4.97;2.03;;;;;;;21.42;34.16;101358.47;7311205;19;128913;-63
2021/12/06 08:08:43;;;;;;;3.70;2.00;;;;;;;21.49;33.84;101353.56;7312883;19;128851;-63
2021/12/06 08:11:14;;;;;;;3.53;1.85;;;;;;;21.54;33.85;101352.84;7310497;19;130601;-63
2021/12/06 08:13:44;;;;;;;2.28;1.80;;;;;;;21.59;33.94;101353.75;7311469;19;131272;-63
2021/12/06 08:16:33;;;;;;;2.70;1.90;;;;;;;21.65;34.13;101365.81;7307687;19;128878;-63
2021/12/06 08:19:00;;;;;;;3.85;2.20;;;;;;;21.71;34.00;101372.28;7311980;19;130518;-63
2021/12/06 08:21:28;;;;;;;2.05;1.80;;;;;;;21.74;33.60;101368.97;7310477;19;130674;-63
2021/12/06 08:23:57;;;;;;;5.03;1.70;;;;;;;21.77;33.37;101366.53;7310796;19;131505;-63
2021/12/06 08:26:27;;;;;;;3.63;1.63;;;;;;;21.81;33.53;101373.25;7313035;19;129987;-63
2021/12/06 08:28:55;;;;;;;2.90;1.60;;;;;;;21.84;33.59;101371.91;7317299;19;129259;-63
2021/12/06 08:31:23;;;;;;;2.05;1.70;;;;;;;21.90;33.38;101367.25;7320648;19;130751;-63
2021/12/06 08:33:53;;;;;;;4.07;1.85;;;;;;;21.94;33.47;101371.19;7317918;19;130596;-64
2021/12/06 08:36:21;;;;;;;2.90;1.73;;;;;;;22.01;33.45;101379.38;7319514;19;129098;-63
2021/12/06 08:38:49;;;;;;;7.32;2.22;;;;;;;22.10;33.17;101392.59;7317970;19;129037;-63
2021/12/06 08:41:21;;;;;;;2.10;1.45;;;;;;;22.22;33.35;101395.25;7319019;19;130558;-63
2021/12/06 08:43:49;;;;;;;5.97;1.80;;;;;;;22.36;32.95;101397.66;7314549;19;130994;-63
2021/12/06 08:46:22;;;;;;;1.65;1.40;;;;;;;22.50;32.89;101401.72;7319740;19;129429;-64
2021/12/06 08:48:50;;;;;;;3.10;1.65;;;;;;;22.65;32.33;101403.00;7316630;19;129259;-63
2021/12/06 08:51:35;;;;;;;2.42;1.30;;;;;;;22.78;32.62;101410.09;7317531;19;131354;-63
2021/12/06 08:54:04;;;;;;;4.50;1.50;;;;;;;22.90;32.65;101405.25;7315971;19;130511;-63
2021/12/06 08:56:31;;;;;;;2.97;1.67;;;;;;;23.02;32.25;101403.13;7316797;19;128907;-63
2021/12/06 08:58:59;;;;;;;1.65;1.50;;;;;;;23.12;32.10;101402.38;7319721;19;130013;-63
2021/12/06 09:01:26;;;;;;;1.30;1.20;;;;;;;23.20;32.01;101406.63;7317341;19;130395;-63
2021/12/06 09:04:15;;;;;;;2.35;1.73;;;;;;;23.30;32.28;101409.50;7317693;19;133390;-63
2021/12/06 09:06:45;;;;;;;4.75;1.63;;;;;;;23.37;31.81;101402.88;7316962;19;129827;-63
2021/12/06 09:09:14;;;;;;;2.20;1.40;;;;;;;23.42;31.86;101405.69;7316896;19;129795;-63
2021/12/06 09:11:42;;;;;;;1.70;1.45;;;;;;;23.46;31.27;101410.47;7314564;19;131361;-63
2021/12/06 09:14:10;;;;;;;2.25;1.70;;;;;;;23.54;31.63;101409.13;7318539;19;131238;-63
2021/12/06 09:16:38;;;;;;;3.15;1.77;;;;;;;23.60;31.46;101415.63;7314211;19;128964;-62
2021/12/06 09:19:08;;;;;;;3.42;1.60;;;;;;;23.64;31.40;101412.03;7316753;19;129304;-63
2021/12/06 09:21:37;;;;;;;1.48;1.30;;;;;;;23.69;31.35;101410.38;7313764;19;130596;-63
2021/12/06 09:24:07;;;;;;;2.88;1.75;;;;;;;23.68;31.29;101405.91;7318194;19;137477;-63
2021/12/06 09:26:35;;;;;;;3.63;1.95;;;;;;;23.65;31.47;101410.09;7314131;19;129053;-63
2021/12/06 09:29:03;;;;;;;2.13;1.60;;;;;;;23.61;31.44;101414.50;7316138;19;128941;-63
2021/12/06 09:31:30;;;;;;;2.70;1.85;;;;;;;23.53;31.58;101417.78;7315123;19;131048;-63
2021/12/06 09:33:57;;;;;;;2.45;1.73;;;;;;;23.44;31.63;101414.66;7316169;19;130666;-63
2021/12/06 09:36:25;;;;;;;2.33;1.67;;;;;;;23.34;31.80;101415.41;7313854;19;129038;-63
2021/12/06 09:38:53;;;;;;;2.30;1.75;;;;;;;23.23;31.92;101420.06;7312144;19;129101;-63
2021/12/06 09:41:25;;;;;;;2.53;1.67;;;;;;;23.10;32.11;101412.97;7313474;19;130640;-64
2021/12/06 09:43:56;;;;;;;7.30;2.45;;;;;;;23.00;31.98;101415.66;7312171;19;130785;-63
2021/12/06 09:46:23;;;;;;;2.70;1.73;;;;;;;22.88;32.27;101421.41;7314441;19;128877;-64
2021/12/06 09:48:50;;;;;;;2.88;1.88;;;;;;;22.78;31.98;101424.06;7314672;19;128823;-64
2021/12/06 09:51:21;;;;;;;4.50;1.77;;;;;;;22.69;32.18;101420.91;7316525;19;131266;-63
2021/12/06 09:53:50;;;;;;;2.38;1.48;;;;;;;22.59;32.49;101410.47;7314322;19;130504;-63
2021/12/06 09:56:24;;;;;;;2.17;1.92;;;;;;;22.51;32.73;101422.13;7316333;19;131098;-63
2021/12/06 09:58:54;;;;;;;3.50;1.80;;;;;;;22.40;32.65;101412.78;7313132;19;128790;-64
2021/12/06 10:01:24;;;;;;;1.70;1.60;;;;;;;22.32;33.05;101416.03;7314757;19;131224;-64
2021/12/06 10:03:54;;;;;;;2.50;1.77;;;;;;;22.21;33.26;101406.69;7312847;19;131303;-64
2021/12/06 10:06:22;;;;;;;3.58;1.80;;;;;;;22.14;33.23;101409.63;7313416;19;130909;-64
2021/12/06 10:08:51;;;;;;;3.80;2.10;;;;;;;22.06;33.21;101408.13;7316732;19;129533;-64
2021/12/06 10:11:19;;;;;;;2.67;2.00;;;;;;;21.99;33.23;101401.91;7310032;19;133680;-63
2021/12/06 10:13:47;;;;;;;4.22;2.53;;;;;;;21.96;33.58;101410.78;7316225;19;130472;-64
2021/12/06 10:16:14;;;;;;;3.50;2.08;;;;;;;21.95;33.61;101407.16;7312871;19;128960;-63
2021/12/06 10:18:42;;;;;;;2.63;2.00;;;;;;;21.99;33.57;101413.06;7316788;19;128823;-63
2021/12/06 10:21:10;;;;;;;3.47;2.05;;;;;;;22.02;33.54;101400.56;7312486;19;130669;-64
2021/12/06 10:23:38;;;;;;;2.85;2.10;;;;;;;22.08;33.29;101400.38;7312052;19;130842;-63
2021/12/06 10:26:07;;;;;;;2.25;1.70;;;;;;;22.15;33.24;101393.78;7313659;19;128811;-64
2021/12/06 10:28:35;;;;;;;3.20;1.92;;;;;;;22.19;33.24;101389.34;7316848;19;129470;-63
2021/12/06 10:31:05;;;;;;;2.10;1.90;;;;;;;22.24;33.31;101387.50;7309899;19;130668;-64
2021/12/06 10:33:38;;;;;;;3.40;1.80;;;;;;;22.31;33.28;101369.75;7312982;19;130437;-64
2021/12/06 10:36:09;;;;;;;2.20;1.83;;;;;;;22.36;33.27;101365.06;7315687;19;129186;-64
2021/12/06 10:38:39;;;;;;;3.72;2.10;;;;;;;22.43;32.66;101357.34;7313700;19;129441;-63
2021/12/06 10:41:10;;;;;;;4.03;2.20;;;;;;;22.50;32.80;101345.16;7315900;19;130682;-64
2021/12/06 10:43:38;;;;;;;2.17;1.83;;;;;;;22.56;33.01;101344.06;7312137;19;131287;-64
2021/12/06 10:46:07;;;;;;;4.55;1.90;;;;;;;22.63;32.61;101343.88;7316003;19;128981;-64
2021/12/06 10:48:37;;;;;;;2.28;2.00;;;;;;;22.70;32.46;101339.75;7312780;19;129325;-64
2021/12/06 10:51:10;;;;;;;4.15;2.28;;;;;;;22.77;32.15;101338.72;7315093;19;130674;-64
2021/12/06 10:53:44;;;;;;;3.00;2.00;;;;;;;22.80;32.62;101340.97;7313054;19;130569;-64
2021/12/06 10:56:24;;;;;;;2.30;1.70;;;;;;;22.83;32.30;101321.72;7315649;19;128830;-63
2021/12/06 10:58:55;;;;;;;2.47;1.90;;;;;;;22.87;31.93;101283.84;7313079;19;130569;-63
2021/12/06 11:01:28;;;;;;;4.72;1.90;;;;;;;22.93;32.19;101276.38;7313914;19;131415;-63
2021/12/06 11:03:56;;;;;;;2.00;1.60;;;;;;;22.95;32.18;101254.63;7312188;19;131464;-64
2021/12/06 11:06:31;;;;;;;2.67;1.80;;;;;;;22.99;32.02;101254.94;7314960;19;130429;-63
2021/12/06 11:09:03;;;;;;;2.08;1.80;;;;;;;23.01;32.12;101267.53;7314448;19;129224;-64
2021/12/06 11:11:35;;;;;;;2.05;1.70;;;;;;;23.05;31.99;101277.03;7312510;19;131140;-64
2021/12/06 11:14:11;;;;;;;2.03;1.50;;;;;;;23.09;31.92;101270.91;7315842;19;130351;-64
2021/12/06 11:16:41;;;;;;;3.03;1.60;;;;;;;23.11;31.85;101261.16;7312242;19;129075;-64
2021/12/06 11:19:15;;;;;;;2.35;2.10;;;;;;;23.14;31.60;101266.22;7314640;19;131111;-64
2021/12/06 11:21:46;;;;;;;2.53;1.70;;;;;;;23.16;31.88;101260.34;7312045;19;130607;-63
2021/12/06 11:24:27;;;;;;;3.60;1.90;;;;;;;23.14;31.83;101266.22;7312380;19;128568;-64
2021/12/06 11:27:03;;;;;;;3.25;1.67;;;;;;;23.11;31.58;101261.16;7315163;19;129717;-64
2021/12/06 11:29:40;;;;;;;3.78;1.73;;;;;;;23.05;32.05;101263.06;7312711;19;128903;-64
2021/12/06 11:32:11;;;;;;;2.63;2.17;;;;;;;22.99;31.79;101258.59;7314734;19;130607;-63
2021/12/06 11:34:44;;;;;;;2.00;1.75;;;;;;;22.92;32.32;101257.97;7311542;19;131479;-64
2021/12/06 11:37:23;;;;;;;2.80;1.80;;;;;;;22.87;32.06;101249.53;7315263;19;128862;-64
2021/12/06 11:40:05;;;;;;;2.47;1.90;;;;;;;22.79;32.21;101242.50;7311605;19;129453;-64